YBRM

Details ICAO YBRM (BME)
Name Broome Intl
Region Australia
Timezone Australia/Perth (UTC+8.0)
Plans Departing 203
Arriving 228
Stats Elevation 56 ft / 17 m (AMSL)
Location -17.948700° 122.227000°
Runways 1
Magnetic Variation 1.696° E
Sunrise 2019-04-19 22:02:30 UTC / 2019-04-20 06:02:30 Local
Sunset 2019-04-20 09:40:00 UTC / 2019-04-20 17:40:00 Local
Advertisement - Login to hide

Runways

ID Width Length Bearing (true/mag) Surface Threshold Overrun Markings Lighting
10 148 ft / 45 m 8,325 ft / 2,537 m 105.60° / 103.91° ASPHALT 292 ft / 89 m 52 ft / 16 m APP EDGE THRESHOLD
28 148 ft / 45 m 8,325 ft / 2,537 m 285.60° / 283.90° ASPHALT 666 ft / 203 m 0 ft / 0 m APP EDGE THRESHOLD

Map

Weather


0- 5 10 15 20 25 30 35+ Temperature / °C

Clouds and Precipitation
Forecast for 2019-04-20 12:00 UTC. Updated 28 minutes ago

Ground ~20,000 ft ~40,000 ft Winds

METAR

YBRM 201000Z AUTO 35008KT 9999 // NCD 27/22 Q1009

TAF

TAF AMD YBRM 200804Z 2008/2106 28010KT CAVOK FM201200 VRB03KT CAVOK FM202000 17008KT CAVOK

Frequencies

Unicom 126.00 MHz BROOME RADIO MULT
Unicom 119.60 MHz ACTIVATE LIGHTS ONLY MULT
Recorded 126.55 MHz YBRM ATIS
Unicom 123.90 MHz BRISBANE CENTRE MULT
Warning: Do not use this data for real-world aviation or navigation. No guarantee of current accuracy is given.